Conceicao dos Ouros, Brazil
Current Conditions -  °F | °C
As of 8:00 PM on Saturday 25 Oct 2014 (Local Time) from SBGW Reporting Station
Moderate Rain Moderate Rain  
Wind Chill: 73°   Ceiling: 10000
Heat Index: 73°   Visibility: 1.8mi
Dew Point: 64°   Wind: 3mph
Humidity: 73%   Direction: 260°W
Pressure: NA   Gusts: NA
Location:  22.41°S, 45.8°W
Report Text: SBGW 252200Z 26003KT 3000 RA SCT025 FEW030TCU BKN100 23/18 Q1015
Loading
Personal Weather Stations






























Interactive Weather Map
Tropical Storm Tracking
New forecast layout! Learn more

10-Day Weather Forecast

Advertisements
Track Severe Weather on mobile